Time;durP1;ratioP1;P1;durP2;ratioP2;P2;SDS_P1;SDS_P2;PMS_P1;PMS_P2;Temp;Humidity;BMP_temperature;BMP_pressure;BME280_temperature;BME280_humidity;BME280_pressure;Samples;Min_cycle;Max_cycle;Signal;HPM_P1;HPM_P2
2023/12/19 00:00:29;;;;;;;21.45;9.13;;;7.80;90.20;;;;;;5045647;28;20037;-70
2023/12/19 00:02:55;;;;;;;12.93;8.05;;;7.80;89.80;;;;;;5044865;28;20472;-71
2023/12/19 00:05:21;;;;;;;17.58;9.27;;;7.80;89.90;;;;;;5054025;28;20569;-70
2023/12/19 00:07:47;;;;;;;19.98;9.13;;;7.90;89.90;;;;;;5044753;28;20033;-70
2023/12/19 00:10:15;;;;;;;12.77;7.55;;;7.80;90.00;;;;;;5036039;28;20397;-71
2023/12/19 00:12:41;;;;;;;17.40;8.93;;;7.80;90.10;;;;;;5045746;28;20376;-60
2023/12/19 00:15:08;;;;;;;16.42;8.38;;;7.80;90.10;;;;;;5044226;28;20048;-59
2023/12/19 00:17:33;;;;;;;17.27;7.88;;;7.80;90.10;;;;;;5049580;28;20044;-59
2023/12/19 00:19:59;;;;;;;13.60;7.85;;;7.80;90.10;;;;;;5051740;28;20036;-59
2023/12/19 00:22:25;;;;;;;15.85;7.95;;;7.80;90.10;;;;;;5043969;28;20040;-59
2023/12/19 00:24:54;;;;;;;13.07;8.02;;;7.90;90.10;;;;;;5043615;28;20029;-60
2023/12/19 00:27:19;;;;;;;18.00;8.18;;;7.90;90.10;;;;;;5044383;28;20705;-59
2023/12/19 00:29:45;;;;;;;15.80;8.65;;;7.80;90.20;;;;;;5045990;28;20029;-59
2023/12/19 00:32:11;;;;;;;12.82;6.57;;;7.80;90.20;;;;;;5045681;28;20033;-59
2023/12/19 00:34:36;;;;;;;15.80;8.07;;;7.90;90.20;;;;;;5043874;28;20029;-59
2023/12/19 00:37:02;;;;;;;14.73;7.65;;;7.90;90.20;;;;;;5049872;28;20044;-59
2023/12/19 00:39:28;;;;;;;13.68;7.05;;;7.90;90.20;;;;;;5049802;28;20020;-59
2023/12/19 00:41:54;;;;;;;16.85;8.20;;;7.90;90.20;;;;;;5045024;28;20104;-59
2023/12/19 00:44:20;;;;;;;17.05;8.02;;;7.90;90.30;;;;;;5052011;28;20025;-59
2023/12/19 00:46:45;;;;;;;15.70;7.80;;;7.90;90.30;;;;;;5051505;28;20491;-59
2023/12/19 00:49:11;;;;;;;19.40;9.77;;;7.80;90.30;;;;;;5049263;28;20537;-59
2023/12/19 00:51:38;;;;;;;20.85;9.70;;;7.80;90.40;;;;;;5053207;28;20035;-59
2023/12/19 00:54:04;;;;;;;16.13;8.60;;;7.90;90.50;;;;;;5046248;28;20033;-59
2023/12/19 00:56:30;;;;;;;13.43;6.72;;;7.90;90.50;;;;;;5057202;28;20048;-59
2023/12/19 00:58:56;;;;;;;10.40;5.85;;;7.90;90.40;;;;;;5052855;28;20475;-59
2023/12/19 01:01:23;;;;;;;11.82;7.60;;;8.00;90.40;;;;;;5049734;28;20025;-59
2023/12/19 01:03:49;;;;;;;15.77;8.40;;;8.00;90.30;;;;;;5050136;28;20033;-59
2023/12/19 01:06:15;;;;;;;15.65;9.43;;;8.00;90.30;;;;;;5045794;28;20021;-71
2023/12/19 01:08:40;;;;;;;18.92;7.63;;;8.00;90.30;;;;;;5049930;28;20040;-71
2023/12/19 01:11:09;;;;;;;12.70;7.50;;;8.10;90.30;;;;;;5039031;28;20025;-71
2023/12/19 01:13:38;;;;;;;17.95;9.50;;;8.10;90.30;;;;;;5048762;28;20132;-59
2023/12/19 01:16:05;;;;;;;14.68;8.32;;;8.10;90.30;;;;;;5045648;28;20443;-60
2023/12/19 01:18:32;;;;;;;12.63;6.75;;;8.10;90.30;;;;;;5042645;28;20033;-59
2023/12/19 01:20:58;;;;;;;21.80;8.40;;;8.10;90.30;;;;;;5051576;28;20017;-60
2023/12/19 01:23:25;;;;;;;15.98;7.60;;;8.00;90.40;;;;;;5049293;28;20511;-59
2023/12/19 01:25:51;;;;;;;21.13;8.57;;;8.00;90.40;;;;;;5043463;28;20032;-59
2023/12/19 01:28:16;;;;;;;17.52;9.18;;;8.10;90.50;;;;;;5052339;28;20103;-59
2023/12/19 01:30:42;;;;;;;22.90;9.10;;;8.00;90.50;;;;;;5056068;28;20045;-59
2023/12/19 01:33:09;;;;;;;14.43;8.57;;;8.00;90.50;;;;;;5046771;28;20033;-59
2023/12/19 01:35:35;;;;;;;15.93;8.10;;;8.00;90.60;;;;;;5052109;28;20024;-59
2023/12/19 01:38:01;;;;;;;15.32;7.88;;;8.00;90.60;;;;;;5051795;28;20025;-60
2023/12/19 01:40:34;;;;;;;12.43;7.38;;;8.00;90.60;;;;;;5052494;28;20365;-59
2023/12/19 01:43:00;;;;;;;22.23;8.75;;;8.00;90.60;;;;;;5052691;28;20060;-59
2023/12/19 01:45:27;;;;;;;13.60;7.28;;;8.00;90.60;;;;;;5048597;28;20039;-59
2023/12/19 01:47:54;;;;;;;12.00;8.32;;;8.00;90.60;;;;;;5053972;28;20029;-59
2023/12/19 01:50:20;;;;;;;12.90;8.07;;;8.10;90.50;;;;;;5049487;28;20025;-59
2023/12/19 01:52:57;;;;;;;16.80;9.52;;;8.10;90.60;;;;;;5052524;28;20028;-59
2023/12/19 01:55:27;;;;;;;15.40;7.72;;;8.10;90.50;;;;;;5045460;28;20033;-59
2023/12/19 01:57:56;;;;;;;20.70;8.50;;;8.10;90.60;;;;;;5051060;28;20028;-59
2023/12/19 02:00:23;;;;;;;14.52;8.10;;;8.10;90.60;;;;;;5048370;28;20187;-71
2023/12/19 02:02:52;;;;;;;18.02;8.82;;;8.10;90.60;;;;;;5046785;28;20050;-71
2023/12/19 02:05:19;;;;;;;19.10;8.50;;;8.10;90.70;;;;;;5048711;28;20374;-70
2023/12/19 02:07:44;;;;;;;14.35;8.05;;;8.10;90.70;;;;;;5054919;28;20553;-59
2023/12/19 02:10:11;;;;;;;13.93;8.25;;;8.10;90.70;;;;;;5053377;28;20036;-59
2023/12/19 02:12:38;;;;;;;13.13;7.60;;;8.10;90.80;;;;;;5047793;28;20039;-60
2023/12/19 02:15:05;;;;;;;14.70;7.80;;;8.10;90.80;;;;;;5047062;28;20071;-59
2023/12/19 02:17:31;;;;;;;14.75;7.55;;;8.10;90.80;;;;;;5049581;28;20029;-59
2023/12/19 02:19:56;;;;;;;16.70;6.57;;;8.10;90.80;;;;;;5048888;28;20048;-59
2023/12/19 02:22:22;;;;;;;13.90;7.80;;;8.10;90.80;;;;;;5056484;28;20154;-59
2023/12/19 02:24:48;;;;;;;14.15;8.35;;;8.10;90.80;;;;;;5049493;28;20048;-60
2023/12/19 02:27:15;;;;;;;15.75;7.97;;;8.10;90.80;;;;;;5049935;28;20086;-59
2023/12/19 02:29:41;;;;;;;13.95;8.45;;;8.10;90.80;;;;;;5045499;28;20032;-60
2023/12/19 02:32:07;;;;;;;17.00;8.50;;;8.10;90.80;;;;;;5036589;28;20033;-59
2023/12/19 02:34:33;;;;;;;17.48;8.45;;;8.10;90.80;;;;;;5054107;28;20079;-60
2023/12/19 02:36:58;;;;;;;14.20;7.93;;;8.10;90.90;;;;;;5053996;28;20048;-59
2023/12/19 02:39:24;;;;;;;14.88;7.50;;;8.10;90.90;;;;;;5061545;28;20028;-59
2023/12/19 02:41:50;;;;;;;13.23;7.93;;;8.10;90.90;;;;;;5061050;28;20022;-60
2023/12/19 02:44:15;;;;;;;13.73;7.10;;;8.20;90.90;;;;;;5065092;28;20475;-59
2023/12/19 02:46:41;;;;;;;11.13;7.20;;;8.20;90.90;;;;;;5059487;28;20029;-59
2023/12/19 02:49:07;;;;;;;16.15;8.07;;;8.20;90.90;;;;;;5046305;28;20052;-60
2023/12/19 02:51:32;;;;;;;18.52;7.40;;;8.20;90.90;;;;;;5056245;28;20100;-59
2023/12/19 02:53:58;;;;;;;13.82;6.40;;;8.10;90.90;;;;;;5055906;28;20029;-71
2023/12/19 02:56:25;;;;;;;14.80;8.90;;;8.10;91.00;;;;;;5055695;28;20063;-71
2023/12/19 02:58:51;;;;;;;15.10;7.43;;;8.20;91.00;;;;;;5045974;28;20040;-71
2023/12/19 03:01:16;;;;;;;11.75;7.20;;;8.20;91.00;;;;;;5059109;28;20021;-71
2023/12/19 03:03:45;;;;;;;14.15;7.32;;;8.20;91.00;;;;;;5055268;28;20526;-71
2023/12/19 03:06:13;;;;;;;15.55;7.13;;;8.20;90.90;;;;;;5055720;28;20025;-59
2023/12/19 03:08:45;;;;;;;14.85;6.55;;;8.30;90.90;;;;;;5058592;28;20039;-59
2023/12/19 03:11:10;;;;;;;16.60;7.75;;;8.30;90.90;;;;;;5052967;28;20094;-59
2023/12/19 03:13:36;;;;;;;11.55;7.25;;;8.30;90.90;;;;;;5060662;28;20147;-59
2023/12/19 03:16:02;;;;;;;14.93;7.93;;;8.20;90.90;;;;;;5040302;28;20472;-59
2023/12/19 03:18:28;;;;;;;18.27;6.45;;;8.30;90.90;;;;;;5060476;28;20025;-59
2023/12/19 03:20:54;;;;;;;13.00;6.72;;;8.30;90.90;;;;;;5058035;28;20111;-59
2023/12/19 03:23:22;;;;;;;13.27;7.35;;;8.30;90.80;;;;;;5059068;28;20025;-70
2023/12/19 03:25:48;;;;;;;12.63;7.53;;;8.30;90.80;;;;;;5057860;28;20033;-70
2023/12/19 03:28:14;;;;;;;15.10;8.10;;;8.30;90.80;;;;;;5057828;28;20051;-71
2023/12/19 03:30:40;;;;;;;17.50;7.70;;;8.30;90.80;;;;;;5050934;28;20427;-71
2023/12/19 03:33:06;;;;;;;18.75;8.63;;;8.30;90.80;;;;;;5044914;28;20063;-70
2023/12/19 03:35:32;;;;;;;18.98;8.90;;;8.30;90.80;;;;;;5058320;28;20032;-71
2023/12/19 03:37:58;;;;;;;16.25;8.73;;;8.40;90.80;;;;;;5054202;28;20021;-59
2023/12/19 03:40:24;;;;;;;17.83;8.32;;;8.40;90.90;;;;;;5057878;28;20025;-71
2023/12/19 03:42:50;;;;;;;17.45;8.88;;;8.40;90.80;;;;;;5051927;28;20033;-71
2023/12/19 03:45:16;;;;;;;20.05;8.05;;;8.40;90.80;;;;;;5057591;28;20032;-71
2023/12/19 03:47:41;;;;;;;18.70;8.25;;;8.40;90.80;;;;;;5053835;28;20059;-71
2023/12/19 03:50:08;;;;;;;13.57;7.20;;;8.40;90.90;;;;;;5030876;28;20504;-71
2023/12/19 03:52:35;;;;;;;17.00;7.63;;;8.40;90.90;;;;;;5056797;28;20560;-71
2023/12/19 03:55:01;;;;;;;19.10;10.20;;;8.40;90.80;;;;;;5048276;28;20029;-71
2023/12/19 03:57:27;;;;;;;17.83;8.40;;;8.40;90.80;;;;;;5051969;28;20387;-71
2023/12/19 03:59:53;;;;;;;19.52;9.80;;;8.40;90.90;;;;;;5053114;28;20032;-71
2023/12/19 04:02:19;;;;;;;18.85;8.70;;;8.40;90.90;;;;;;5049279;28;20024;-70
2023/12/19 04:04:45;;;;;;;16.90;7.70;;;8.30;90.90;;;;;;5051151;28;20462;-71
2023/12/19 04:07:11;;;;;;;13.35;7.07;;;8.30;91.00;;;;;;5055612;28;20455;-59
2023/12/19 04:09:36;;;;;;;11.38;7.07;;;8.30;91.00;;;;;;5049056;28;20083;-58
2023/12/19 04:12:03;;;;;;;12.05;6.93;;;8.30;91.00;;;;;;5050989;28;20116;-70
2023/12/19 04:14:33;;;;;;;9.00;6.75;;;8.40;91.00;;;;;;5049225;28;20110;-58
2023/12/19 04:16:59;;;;;;;11.68;6.38;;;8.40;90.90;;;;;;5058862;28;20472;-59
2023/12/19 04:19:25;;;;;;;13.85;5.72;;;8.30;90.90;;;;;;5055783;28;20098;-59
2023/12/19 04:21:51;;;;;;;26.70;6.15;;;8.30;91.00;;;;;;5051287;28;20036;-59
2023/12/19 04:24:19;;;;;;;20.38;6.63;;;8.30;91.00;;;;;;5059856;28;20029;-59
2023/12/19 04:26:46;;;;;;;12.05;6.15;;;8.40;91.00;;;;;;5053382;28;20585;-59
2023/12/19 04:29:12;;;;;;;10.10;5.70;;;8.40;91.00;;;;;;5053297;28;20037;-59
2023/12/19 04:31:39;;;;;;;7.72;5.43;;;8.40;91.00;;;;;;5060048;28;20083;-59
2023/12/19 04:34:05;;;;;;;9.45;5.57;;;8.40;91.00;;;;;;5050251;28;20033;-70
2023/12/19 04:36:31;;;;;;;10.55;6.00;;;8.40;91.00;;;;;;5056078;28;20025;-70
2023/12/19 04:38:57;;;;;;;9.90;5.10;;;8.40;91.00;;;;;;5057609;28;20021;-70
2023/12/19 04:41:23;;;;;;;9.07;4.95;;;8.40;90.90;;;;;;5053831;28;20033;-70
2023/12/19 04:43:49;;;;;;;10.43;6.60;;;8.40;91.00;;;;;;5047860;28;20399;-70
2023/12/19 04:46:15;;;;;;;8.18;5.40;;;8.40;91.00;;;;;;5049878;28;20029;-58
2023/12/19 04:48:42;;;;;;;10.70;5.60;;;8.40;91.00;;;;;;5050191;28;20032;-58
2023/12/19 04:51:22;;;;;;;8.38;5.18;;;8.40;91.00;;;;;;5050362;28;20048;-58
2023/12/19 04:53:48;;;;;;;7.47;4.60;;;8.40;91.00;;;;;;5049690;28;20020;-58
2023/12/19 04:56:14;;;;;;;7.45;4.90;;;8.40;91.00;;;;;;5048032;28;20096;-58
2023/12/19 04:58:40;;;;;;;8.90;3.90;;;8.40;91.00;;;;;;5050745;28;20033;-70
2023/12/19 05:01:07;;;;;;;7.43;4.03;;;8.40;91.00;;;;;;5037637;28;20494;-70
2023/12/19 05:03:33;;;;;;;7.38;3.65;;;8.40;91.00;;;;;;5050636;28;20029;-70
2023/12/19 05:05:59;;;;;;;6.32;3.67;;;8.40;91.00;;;;;;5054086;28;20028;-70
2023/12/19 05:08:25;;;;;;;5.22;4.00;;;8.40;91.30;;;;;;5044993;28;20559;-70
2023/12/19 05:10:51;;;;;;;5.38;3.05;;;8.40;91.10;;;;;;5047150;28;20090;-70
2023/12/19 05:13:16;;;;;;;4.85;3.10;;;8.40;91.10;;;;;;5048445;28;20476;-59
2023/12/19 05:15:42;;;;;;;5.38;3.17;;;8.40;91.10;;;;;;5046098;28;20033;-58
2023/12/19 05:18:08;;;;;;;5.28;3.08;;;8.50;91.10;;;;;;5048862;28;20432;-58
2023/12/19 05:20:34;;;;;;;5.35;3.22;;;8.50;91.10;;;;;;5053945;28;20030;-70
2023/12/19 05:23:01;;;;;;;4.72;3.35;;;8.50;91.10;;;;;;5050370;28;20068;-70
2023/12/19 05:25:26;;;;;;;5.97;3.28;;;8.50;91.00;;;;;;5046181;28;20056;-70
2023/12/19 05:27:52;;;;;;;3.72;2.75;;;8.50;91.00;;;;;;5052825;28;20040;-71
2023/12/19 05:30:18;;;;;;;5.18;3.67;;;8.50;91.00;;;;;;5035162;28;20028;-70
2023/12/19 05:32:44;;;;;;;6.32;3.40;;;8.50;91.00;;;;;;5051999;28;20039;-70
2023/12/19 05:35:10;;;;;;;5.47;3.58;;;8.60;91.10;;;;;;5048605;28;20032;-71
2023/12/19 05:37:35;;;;;;;6.72;3.70;;;8.60;91.10;;;;;;5054680;28;20025;-58
2023/12/19 05:40:02;;;;;;;5.90;3.78;;;8.60;91.00;;;;;;5051309;28;20041;-70
2023/12/19 05:42:27;;;;;;;6.35;3.55;;;8.60;91.00;;;;;;5050313;28;20385;-70
2023/12/19 05:44:53;;;;;;;6.35;3.70;;;8.60;91.10;;;;;;5046565;28;20055;-70
2023/12/19 05:47:19;;;;;;;8.32;3.85;;;8.60;91.10;;;;;;5051555;28;20033;-70
2023/12/19 05:49:45;;;;;;;6.90;3.75;;;8.70;91.10;;;;;;5050289;28;20445;-70
2023/12/19 05:52:10;;;;;;;7.00;3.85;;;8.70;91.10;;;;;;5040612;28;20064;-70
2023/12/19 05:54:36;;;;;;;6.05;3.63;;;8.70;91.10;;;;;;5051560;28;20458;-70
2023/12/19 05:57:01;;;;;;;4.80;3.33;;;8.70;91.10;;;;;;5051316;28;20407;-70
2023/12/19 05:59:27;;;;;;;5.18;3.35;;;8.70;91.10;;;;;;5049491;28;20082;-70
2023/12/19 06:01:53;;;;;;;5.22;3.80;;;8.70;91.10;;;;;;5050033;28;20033;-70
2023/12/19 06:04:18;;;;;;;8.18;4.25;;;8.80;91.10;;;;;;5039336;28;20458;-70
2023/12/19 06:06:44;;;;;;;7.45;4.20;;;8.80;91.10;;;;;;5045547;28;20452;-58
2023/12/19 06:09:11;;;;;;;6.85;3.38;;;8.80;91.10;;;;;;5045163;28;20685;-71
2023/12/19 06:11:37;;;;;;;5.20;3.45;;;8.80;91.20;;;;;;5038250;28;20051;-71
2023/12/19 06:14:04;;;;;;;7.82;4.68;;;8.80;91.20;;;;;;5043048;28;20052;-70
2023/12/19 06:16:30;;;;;;;6.97;4.82;;;8.80;91.20;;;;;;5050187;28;20040;-70
2023/12/19 06:18:56;;;;;;;6.07;3.80;;;8.90;91.20;;;;;;5052804;28;20059;-70
2023/12/19 06:21:21;;;;;;;7.63;4.63;;;8.90;91.10;;;;;;5052879;28;20035;-70
2023/12/19 06:23:47;;;;;;;4.72;3.55;;;8.90;91.20;;;;;;5052360;28;20039;-71
2023/12/19 06:26:12;;;;;;;6.57;4.65;;;8.90;91.10;;;;;;5029539;28;20148;-71
2023/12/19 06:28:38;;;;;;;9.40;4.80;;;8.90;91.10;;;;;;5021707;28;20120;-70
2023/12/19 06:31:05;;;;;;;8.30;4.22;;;8.90;91.40;;;;;;5025998;28;20136;-70
2023/12/19 06:33:30;;;;;;;7.05;5.13;;;9.00;91.20;;;;;;5023668;28;20517;-70
2023/12/19 06:35:56;;;;;;;11.95;4.53;;;9.00;91.20;;;;;;5036353;28;20032;-70
2023/12/19 06:38:22;;;;;;;7.25;4.55;;;8.90;91.20;;;;;;5052622;28;20025;-70
2023/12/19 06:40:47;;;;;;;7.07;4.60;;;8.90;91.20;;;;;;5033558;28;20732;-71
2023/12/19 06:43:13;;;;;;;8.45;4.13;;;8.90;91.20;;;;;;5038352;28;20463;-71
2023/12/19 06:45:39;;;;;;;7.28;4.28;;;9.00;91.30;;;;;;5049976;28;20025;-70
2023/12/19 06:48:05;;;;;;;7.82;5.28;;;9.00;91.20;;;;;;5036655;28;20481;-70
2023/12/19 06:50:30;;;;;;;6.10;4.43;;;8.90;91.20;;;;;;5040663;28;20067;-58
2023/12/19 06:52:56;;;;;;;9.27;5.05;;;9.00;91.20;;;;;;5044675;28;20041;-58
2023/12/19 06:55:22;;;;;;;8.88;5.30;;;9.00;91.20;;;;;;5045359;28;20029;-58
2023/12/19 06:57:48;;;;;;;10.95;4.70;;;9.00;91.20;;;;;;5046966;28;20412;-70
2023/12/19 07:00:16;;;;;;;8.75;6.15;;;9.00;91.20;;;;;;5044332;28;20021;-71
2023/12/19 07:02:42;;;;;;;7.93;5.07;;;9.00;91.30;;;;;;5046156;28;20029;-58
2023/12/19 07:05:09;;;;;;;8.35;5.10;;;9.00;91.30;;;;;;5043696;28;20052;-58
2023/12/19 07:07:36;;;;;;;8.63;5.18;;;9.00;91.30;;;;;;5044767;28;20069;-58
2023/12/19 07:10:03;;;;;;;9.90;5.55;;;9.00;91.30;;;;;;5043516;28;20539;-58
2023/12/19 07:12:29;;;;;;;9.95;5.30;;;9.00;91.60;;;;;;5047390;28;20116;-58
2023/12/19 07:14:55;;;;;;;9.52;4.55;;;9.00;91.40;;;;;;5040004;28;20514;-58
2023/12/19 07:17:21;;;;;;;10.15;6.10;;;9.00;91.40;;;;;;5037678;28;20538;-58
2023/12/19 07:19:47;;;;;;;7.57;4.63;;;9.00;91.30;;;;;;5056033;28;20060;-58
2023/12/19 07:22:13;;;;;;;8.02;5.10;;;9.00;91.30;;;;;;5052428;28;20065;-58
2023/12/19 07:24:39;;;;;;;10.30;5.50;;;9.00;91.30;;;;;;5045844;28;20051;-58
2023/12/19 07:27:05;;;;;;;8.60;5.38;;;9.10;91.30;;;;;;5048080;28;20025;-58
2023/12/19 07:29:31;;;;;;;10.45;5.00;;;9.10;91.20;;;;;;5048900;28;20098;-71
2023/12/19 07:31:58;;;;;;;9.88;5.18;;;9.10;91.20;;;;;;5051920;28;20025;-70
2023/12/19 07:34:24;;;;;;;10.23;5.65;;;9.10;91.20;;;;;;5054022;28;20128;-70
2023/12/19 07:36:51;;;;;;;9.55;5.45;;;9.10;91.20;;;;;;5050942;28;20136;-70
2023/12/19 07:39:16;;;;;;;9.32;5.28;;;9.10;91.20;;;;;;5049493;28;20121;-70
2023/12/19 07:41:42;;;;;;;10.00;5.03;;;9.10;91.20;;;;;;5048880;28;20108;-70
2023/12/19 07:44:09;;;;;;;9.88;6.10;;;9.10;91.20;;;;;;5050794;28;20040;-70
2023/12/19 07:46:43;;;;;;;12.38;7.53;;;9.20;91.20;;;;;;5052474;28;20071;-70
2023/12/19 07:49:12;;;;;;;10.15;5.93;;;9.20;91.20;;;;;;5045874;28;20111;-70
2023/12/19 07:51:38;;;;;;;13.55;7.25;;;9.20;91.20;;;;;;5055257;28;20263;-70
2023/12/19 07:54:03;;;;;;;11.73;7.00;;;9.10;91.30;;;;;;5060234;28;20039;-70
2023/12/19 07:56:29;;;;;;;12.63;6.78;;;9.10;91.40;;;;;;5054033;28;20079;-70
2023/12/19 07:58:55;;;;;;;16.17;8.73;;;9.10;91.40;;;;;;5061505;28;20040;-70
2023/12/19 08:01:21;;;;;;;12.70;6.75;;;9.10;91.40;;;;;;5058271;28;20025;-70
2023/12/19 08:03:46;;;;;;;16.17;9.13;;;9.10;91.40;;;;;;5049817;28;20036;-70
2023/12/19 08:06:12;;;;;;;11.63;7.00;;;9.20;91.40;;;;;;5057527;28;20033;-70
2023/12/19 08:08:39;;;;;;;15.90;8.05;;;9.20;91.40;;;;;;5049159;28;20021;-70
2023/12/19 08:11:05;;;;;;;15.23;7.88;;;9.20;91.40;;;;;;5057785;28;20017;-70
2023/12/19 08:13:31;;;;;;;33.63;7.97;;;9.20;91.40;;;;;;5054438;28;20044;-66
2023/12/19 08:15:57;;;;;;;15.68;7.82;;;9.20;91.40;;;;;;5052054;28;20063;-70
2023/12/19 08:18:23;;;;;;;16.27;7.28;;;9.20;91.30;;;;;;5051575;28;20812;-70
2023/12/19 08:20:48;;;;;;;16.15;7.65;;;9.20;91.30;;;;;;5055355;28;20120;-70
2023/12/19 08:23:14;;;;;;;18.52;8.75;;;9.20;91.40;;;;;;5056992;28;20501;-59
2023/12/19 08:25:41;;;;;;;15.65;9.48;;;9.20;91.40;;;;;;5049523;28;20468;-58
2023/12/19 08:28:08;;;;;;;13.23;6.85;;;9.30;91.40;;;;;;5059139;28;20033;-58
2023/12/19 08:30:34;;;;;;;14.18;8.00;;;9.30;91.30;;;;;;5059505;28;20038;-58
2023/12/19 08:33:00;;;;;;;14.88;7.55;;;9.30;91.40;;;;;;5055899;28;20033;-58
2023/12/19 08:35:26;;;;;;;15.77;8.13;;;9.30;91.40;;;;;;5054208;28;20036;-59
2023/12/19 08:37:52;;;;;;;17.33;8.90;;;9.30;91.40;;;;;;5054857;28;20029;-58
2023/12/19 08:40:19;;;;;;;11.48;7.10;;;9.30;91.40;;;;;;5058603;28;20100;-59
2023/12/19 08:42:44;;;;;;;12.35;7.95;;;9.30;91.40;;;;;;5049348;28;20028;-58
2023/12/19 08:45:17;;;;;;;15.98;7.97;;;9.40;91.50;;;;;;5056058;28;20495;-58
2023/12/19 08:47:44;;;;;;;;;;;9.40;91.50;;;;;;5053013;28;20374;-58
2023/12/19 08:50:11;;;;;;;12.68;8.00;;;9.30;91.60;;;;;;5051986;28;20363;-58
2023/12/19 08:52:37;;;;;;;16.98;8.48;;;9.30;91.60;;;;;;5053291;28;20069;-58
2023/12/19 08:55:07;;;;;;;13.40;7.85;;;9.30;91.60;;;;;;5056401;28;20040;-58
2023/12/19 08:57:40;;;;;;;11.90;7.47;;;9.30;91.60;;;;;;5053430;28;20033;-70
2023/12/19 09:00:06;;;;;;;14.30;7.30;;;9.30;91.60;;;;;;5047243;28;20068;-70
2023/12/19 09:02:32;;;;;;;17.48;8.63;;;9.40;91.60;;;;;;5045044;28;20124;-70
2023/12/19 09:04:58;;;;;;;15.18;7.90;;;9.40;91.60;;;;;;5053682;28;20204;-71
2023/12/19 09:07:27;;;;;;;11.75;7.20;;;9.40;91.60;;;;;;5044494;28;20033;-59
2023/12/19 09:09:55;;;;;;;14.68;6.95;;;9.40;91.70;;;;;;5044437;28;20041;-70
2023/12/19 09:12:21;;;;;;;12.48;7.47;;;9.40;91.70;;;;;;5043391;28;21415;-59
2023/12/19 09:14:47;;;;;;;13.32;7.80;;;9.40;91.70;;;;;;5047415;28;20136;-59
2023/12/19 09:17:12;;;;;;;13.07;5.85;;;9.50;91.60;;;;;;5051068;28;20132;-59
2023/12/19 09:19:38;;;;;;;10.13;6.10;;;9.50;91.60;;;;;;5051483;28;20061;-60
2023/12/19 09:22:04;;;;;;;11.68;6.88;;;9.50;91.60;;;;;;5049958;28;20025;-59
2023/12/19 09:24:31;;;;;;;9.88;5.80;;;9.60;91.50;;;;;;5036403;28;20030;-59
2023/12/19 09:26:59;;;;;;;8.50;5.63;;;9.60;91.50;;;;;;5046147;28;20118;-59
2023/12/19 09:29:27;;;;;;;9.25;5.57;;;9.50;91.60;;;;;;5049165;28;20033;-59
2023/12/19 09:31:53;;;;;;;8.30;5.35;;;9.50;91.70;;;;;;5051990;28;20392;-72
2023/12/19 09:34:19;;;;;;;11.15;5.72;;;9.50;91.60;;;;;;5051070;28;20032;-59
2023/12/19 09:36:45;;;;;;;9.13;5.03;;;9.50;91.60;;;;;;5051848;28;20033;-59
2023/12/19 09:39:14;;;;;;;7.88;4.93;;;9.50;91.60;;;;;;5044012;28;20479;-59
2023/12/19 09:41:45;;;;;;;9.73;4.25;;;9.50;91.60;;;;;;5046588;28;20040;-62
2023/12/19 09:44:11;;;;;;;8.90;5.93;;;9.60;91.50;;;;;;5048052;28;20039;-58
2023/12/19 09:46:37;;;;;;;7.40;4.53;;;9.50;91.50;;;;;;5047834;28;20484;-58
2023/12/19 09:49:03;;;;;;;6.18;4.47;;;9.50;91.50;;;;;;5047943;28;20103;-59
2023/12/19 09:51:32;;;;;;;7.35;3.72;;;9.60;91.60;;;;;;5049012;28;20475;-58
2023/12/19 09:54:00;;;;;;;7.38;4.13;;;9.50;91.60;;;;;;5053100;28;20082;-58
2023/12/19 09:56:27;;;;;;;7.43;3.67;;;9.60;91.60;;;;;;5049078;28;20354;-59
2023/12/19 09:58:55;;;;;;;5.97;3.95;;;9.60;91.50;;;;;;5053455;28;20040;-58
2023/12/19 10:01:21;;;;;;;6.30;3.67;;;9.60;91.50;;;;;;5046550;28;20439;-58
2023/12/19 10:03:49;;;;;;;7.03;4.38;;;9.60;91.50;;;;;;5041680;28;20036;-59
2023/12/19 10:06:17;;;;;;;5.00;3.15;;;9.60;91.50;;;;;;5040902;28;20095;-59
2023/12/19 10:08:44;;;;;;;5.72;3.78;;;9.60;91.50;;;;;;5043811;28;20029;-57
2023/12/19 10:11:21;;;;;;;6.82;4.35;;;9.60;91.50;;;;;;5029565;28;20052;-68
2023/12/19 10:13:47;;;;;;;8.05;4.82;;;9.70;91.40;;;;;;5039863;28;20091;-66
2023/12/19 10:16:17;;;;;;;5.60;3.75;;;9.60;91.40;;;;;;5042040;28;20048;-66
2023/12/19 10:18:44;;;;;;;5.95;4.32;;;9.60;91.40;;;;;;5036615;28;20439;-57
2023/12/19 10:21:13;;;;;;;7.40;4.82;;;9.60;91.40;;;;;;5029319;28;20475;-57
2023/12/19 10:23:42;;;;;;;10.50;4.85;;;9.60;91.40;;;;;;5041973;28;20058;-58
2023/12/19 10:26:08;;;;;;;7.78;3.85;;;9.60;91.40;;;;;;5037070;28;20037;-58
2023/12/19 10:28:35;;;;;;;6.55;4.30;;;9.60;91.40;;;;;;5031031;28;20029;-70
2023/12/19 10:31:15;;;;;;;5.88;3.30;;;9.60;91.40;;;;;;5028471;28;20086;-69
2023/12/19 10:33:51;;;;;;;6.45;4.40;;;9.60;91.40;;;;;;5039461;28;20124;-69
2023/12/19 10:36:30;;;;;;;6.28;4.10;;;9.60;91.40;;;;;;5043099;28;20049;-69
2023/12/19 10:38:58;;;;;;;5.70;3.63;;;9.60;91.40;;;;;;5034732;28;20033;-69
2023/12/19 10:41:29;;;;;;;5.40;4.25;;;9.50;91.50;;;;;;5035976;28;20036;-69
2023/12/19 10:43:57;;;;;;;5.05;3.80;;;9.50;91.50;;;;;;5054284;28;20058;-70
2023/12/19 10:46:26;;;;;;;7.32;3.95;;;9.60;91.50;;;;;;5053255;28;20048;-70
2023/12/19 10:48:58;;;;;;;5.40;3.88;;;9.60;91.50;;;;;;5044293;28;20040;-70
2023/12/19 10:51:27;;;;;;;5.82;3.58;;;9.60;91.50;;;;;;5047789;28;20388;-69
2023/12/19 10:53:58;;;;;;;7.55;3.10;;;9.60;91.50;;;;;;5036029;28;20565;-70
2023/12/19 10:56:26;;;;;;;9.38;4.32;;;9.60;91.50;;;;;;5050417;28;20018;-57
2023/12/19 10:59:00;;;;;;;6.45;3.75;;;9.60;91.50;;;;;;5044705;28;20402;-57
2023/12/19 11:01:32;;;;;;;6.05;3.60;;;9.60;91.50;;;;;;5038873;28;20022;-57
2023/12/19 11:04:04;;;;;;;7.90;3.80;;;9.70;91.50;;;;;;5050413;28;20052;-57
2023/12/19 11:06:35;;;;;;;7.70;3.78;;;9.60;91.50;;;;;;5037396;28;20030;-57
2023/12/19 11:09:05;;;;;;;6.10;3.92;;;9.60;91.50;;;;;;5039119;28;20079;-57
2023/12/19 11:11:37;;;;;;;6.43;4.45;;;9.60;91.50;;;;;;5045104;28;20045;-57
2023/12/19 11:14:04;;;;;;;5.70;3.30;;;9.70;91.50;;;;;;5065913;28;20028;-58
2023/12/19 11:16:40;;;;;;;5.00;3.40;;;9.70;91.50;;;;;;5049865;28;20052;-57
2023/12/19 11:19:17;;;;;;;5.45;3.60;;;9.70;91.40;;;;;;5045407;28;20029;-69
2023/12/19 11:21:54;;;;;;;4.20;2.70;;;9.70;91.50;;;;;;5029391;28;20029;-69
2023/12/19 11:24:27;;;;;;;4.80;3.08;;;9.70;91.50;;;;;;5034188;28;20107;-70
2023/12/19 11:27:18;;;;;;;5.20;3.05;;;9.70;91.50;;;;;;5043620;28;20069;-70
2023/12/19 11:29:50;;;;;;;4.57;2.60;;;9.80;91.40;;;;;;5056178;28;20036;-57
2023/12/19 11:32:27;;;;;;;5.28;3.17;;;9.70;91.40;;;;;;5024638;28;20505;-69
2023/12/19 11:35:13;;;;;;;4.97;3.15;;;9.80;91.40;;;;;;5031863;28;20045;-69
2023/12/19 11:37:44;;;;;;;4.30;2.88;;;9.80;91.30;;;;;;5025499;28;20033;-69
2023/12/19 11:40:35;;;;;;;4.57;2.88;;;9.80;91.40;;;;;;5028665;28;20379;-69
2023/12/19 11:43:01;;;;;;;4.35;2.42;;;9.80;91.40;;;;;;5035197;28;20038;-70
2023/12/19 11:45:27;;;;;;;4.97;3.47;;;9.70;91.30;;;;;;5031593;28;20112;-70
2023/12/19 11:47:53;;;;;;;4.95;2.83;;;9.80;91.40;;;;;;5027194;28;20105;-69
2023/12/19 11:50:48;;;;;;;3.60;2.88;;;9.80;91.30;;;;;;5030118;28;20041;-69
2023/12/19 11:53:23;;;;;;;5.38;2.72;;;9.80;91.30;;;;;;5045216;28;20045;-69
2023/12/19 11:55:48;;;;;;;5.10;3.00;;;9.80;91.30;;;;;;5040657;28;20021;-69
2023/12/19 11:58:14;;;;;;;6.30;3.42;;;9.80;91.30;;;;;;5052209;28;20033;-70
2023/12/19 12:00:40;;;;;;;3.85;2.65;;;9.80;91.30;;;;;;5052534;28;20079;-58
2023/12/19 12:03:10;;;;;;;4.78;2.88;;;9.90;91.30;;;;;;5043123;28;20078;-57
2023/12/19 12:05:36;;;;;;;4.45;2.58;;;9.90;91.30;;;;;;5055486;28;20025;-57
2023/12/19 12:08:03;;;;;;;3.70;2.53;;;9.90;91.20;;;;;;5048176;28;20029;-57
2023/12/19 12:10:29;;;;;;;3.92;2.78;;;9.90;91.20;;;;;;5036556;28;20543;-58
2023/12/19 12:13:01;;;;;;;4.38;2.83;;;9.90;91.20;;;;;;5043281;28;20109;-57
2023/12/19 12:15:27;;;;;;;4.57;2.75;;;9.90;91.20;;;;;;5055533;28;20550;-57
2023/12/19 12:18:04;;;;;;;5.75;2.97;;;9.90;91.30;;;;;;5054216;28;20186;-57
2023/12/19 12:20:33;;;;;;;3.47;2.13;;;9.90;91.30;;;;;;5055048;28;20036;-57
2023/12/19 12:22:59;;;;;;;4.25;3.20;;;9.80;91.30;;;;;;5049751;28;20484;-57
2023/12/19 12:25:25;;;;;;;3.50;2.65;;;9.80;91.30;;;;;;5053465;28;20063;-57
2023/12/19 12:27:55;;;;;;;7.20;2.45;;;9.80;91.30;;;;;;5050460;28;20057;-58
2023/12/19 12:30:27;;;;;;;3.55;2.83;;;9.80;91.30;;;;;;5048728;28;20559;-57
2023/12/19 12:32:53;;;;;;;3.53;2.50;;;9.80;91.30;;;;;;5052755;28;20033;-57
2023/12/19 12:35:31;;;;;;;3.63;2.67;;;9.80;91.30;;;;;;5043297;28;20433;-57
2023/12/19 12:38:18;;;;;;;4.80;2.65;;;9.90;91.30;;;;;;5043568;28;20100;-57
2023/12/19 12:40:54;;;;;;;2.35;1.75;;;9.90;91.20;;;;;;5043468;28;20036;-57
2023/12/19 12:43:37;;;;;;;5.20;2.90;;;9.90;91.20;;;;;;5039974;28;20467;-57
2023/12/19 12:46:13;;;;;;;3.80;2.17;;;9.90;91.20;;;;;;5042922;28;20037;-57
2023/12/19 12:48:46;;;;;;;2.92;2.15;;;9.80;91.20;;;;;;5041312;28;20058;-57
2023/12/19 12:51:16;;;;;;;3.83;2.15;;;9.80;91.30;;;;;;5044563;28;20079;-69
2023/12/19 12:53:42;;;;;;;2.65;1.60;;;9.80;91.30;;;;;;5043977;28;20032;-69